Time;durP1;ratioP1;P1;durP2;ratioP2;P2;SDS_P1;SDS_P2;PMS_P1;PMS_P2;Temp;Humidity;BMP_temperature;BMP_pressure;BME280_temperature;BME280_humidity;BME280_pressure;Samples;Min_cycle;Max_cycle;Signal;HPM_P1;HPM_P2
2021/12/12 00:02:11;;;;;;;22.38;20.95;;;4.90;91.10;;;;;;5055115;28;20197;-73
2021/12/12 00:04:44;;;;;;;25.00;22.88;;;4.90;92.40;;;;;;5054913;28;20212;-73
2021/12/12 00:07:18;;;;;;;23.40;21.85;;;5.00;91.40;;;;;;5055077;28;20196;-73
2021/12/12 00:09:48;;;;;;;23.10;21.63;;;5.00;93.10;;;;;;5054944;28;20197;-73
2021/12/12 00:12:19;;;;;;;22.73;21.23;;;5.00;91.80;;;;;;5054841;28;20232;-73
2021/12/12 00:14:47;;;;;;;22.90;21.50;;;5.00;90.60;;;;;;5054631;28;20713;-73
2021/12/12 00:17:14;;;;;;;22.05;20.75;;;5.00;89.90;;;;;;5054764;28;20204;-73
2021/12/12 00:19:41;;;;;;;110.75;27.88;;;4.90;89.60;;;;;;5054536;28;20196;-72
2021/12/12 00:22:12;;;;;;;22.67;21.30;;;5.00;89.30;;;;;;5054375;28;20284;-73
2021/12/12 00:24:41;;;;;;;23.05;21.48;;;5.00;89.40;;;;;;5054426;28;20220;-73
2021/12/12 00:27:08;;;;;;;26.50;24.40;;;5.00;88.80;;;;;;5054595;28;20192;-73
2021/12/12 00:29:37;;;;;;;120.22;32.22;;;5.10;88.90;;;;;;5054520;28;20193;-73
2021/12/12 00:32:07;;;;;;;27.83;25.73;;;5.10;90.50;;;;;;5054444;28;20199;-73
2021/12/12 00:34:36;;;;;;;25.70;23.80;;;5.10;90.30;;;;;;5054412;28;20290;-73
2021/12/12 00:37:06;;;;;;;25.08;23.30;;;5.10;88.60;;;;;;5054471;28;20196;-73
2021/12/12 00:39:36;;;;;;;26.08;24.27;;;5.00;88.80;;;;;;5054466;28;20220;-73
2021/12/12 00:42:07;;;;;;;25.95;24.15;;;5.00;88.00;;;;;;5053773;28;20208;-73
2021/12/12 00:44:37;;;;;;;29.65;27.30;;;5.10;88.20;;;;;;5054048;28;20579;-73
2021/12/12 00:47:08;;;;;;;27.23;25.13;;;5.20;87.30;;;;;;5053890;28;20614;-73
2021/12/12 00:49:36;;;;;;;25.77;23.98;;;5.20;86.90;;;;;;5054130;28;20244;-73
2021/12/12 00:52:05;;;;;;;27.10;24.80;;;5.10;87.00;;;;;;5054129;28;20201;-73
2021/12/12 00:54:32;;;;;;;27.33;25.23;;;5.10;87.00;;;;;;5053900;28;20222;-73
2021/12/12 00:57:01;;;;;;;27.08;25.08;;;5.00;87.10;;;;;;5054124;28;20536;-73
2021/12/12 00:59:29;;;;;;;1108.82;143.52;;;4.90;87.70;;;;;;5052926;28;20238;-73
2021/12/12 01:01:56;;;;;;;32.50;25.50;;;4.90;90.50;;;;;;5054026;28;20219;-73
2021/12/12 01:04:28;;;;;;;24.83;23.08;;;4.90;98.10;;;;;;5053642;28;20308;-73
2021/12/12 01:06:56;;;;;;;23.15;21.55;;;4.90;95.00;;;;;;5053941;28;20201;-73
2021/12/12 01:09:26;;;;;;;22.83;21.40;;;4.90;92.80;;;;;;5053924;28;20201;-73
2021/12/12 01:11:56;;;;;;;22.65;21.15;;;4.90;91.40;;;;;;5053761;28;20197;-73
2021/12/12 01:14:27;;;;;;;25.02;23.33;;;4.90;90.80;;;;;;5053500;28;20216;-73
2021/12/12 01:16:58;;;;;;;23.50;22.00;;;4.90;88.70;;;;;;5053862;28;20200;-73
2021/12/12 01:19:30;;;;;;;23.83;22.30;;;4.90;88.10;;;;;;5053683;28;20220;-73
2021/12/12 01:22:03;;;;;;;24.77;23.05;;;4.90;87.80;;;;;;5053679;28;20292;-73
2021/12/12 01:24:33;;;;;;;32.25;23.27;;;4.90;87.30;;;;;;5053416;28;20225;-73
2021/12/12 01:27:02;;;;;;;24.13;22.48;;;4.90;90.40;;;;;;5053641;28;20212;-73
2021/12/12 01:29:29;;;;;;;23.70;22.00;;;4.90;90.50;;;;;;5053715;28;20189;-73
2021/12/12 01:31:59;;;;;;;23.33;21.90;;;4.90;89.70;;;;;;5053860;28;20204;-73
2021/12/12 01:34:30;;;;;;;22.83;21.33;;;4.90;89.30;;;;;;5053049;28;20216;-73
2021/12/12 01:37:11;;;;;;;23.00;21.45;;;4.90;88.90;;;;;;5053317;28;20734;-73
2021/12/12 01:39:40;;;;;;;22.48;20.77;;;5.00;89.30;;;;;;5053313;28;20220;-73
2021/12/12 01:42:10;;;;;;;526.35;75.68;;;5.00;94.10;;;;;;5052532;28;20674;-73
2021/12/12 01:44:45;;;;;;;452.08;70.65;;;5.00;95.90;;;;;;5052963;28;20736;-73
2021/12/12 01:47:19;;;;;;;63.83;24.70;;;5.00;95.90;;;;;;5052867;28;20200;-73
2021/12/12 01:49:54;;;;;;;22.50;21.10;;;5.00;96.80;;;;;;5053100;28;20747;-73
2021/12/12 01:52:27;;;;;;;22.65;21.05;;;5.10;94.00;;;;;;5053095;28;20298;-73
2021/12/12 01:54:58;;;;;;;23.15;21.65;;;5.10;91.70;;;;;;5052841;28;20604;-73
2021/12/12 01:57:29;;;;;;;23.52;22.13;;;5.10;89.80;;;;;;5053138;28;20200;-73
2021/12/12 01:59:59;;;;;;;23.05;21.55;;;5.00;88.20;;;;;;5052888;28;20244;-73
2021/12/12 02:02:28;;;;;;;23.60;22.08;;;5.00;90.20;;;;;;5052809;28;20757;-73
2021/12/12 02:05:00;;;;;;;410.83;60.60;;;5.00;88.60;;;;;;5052663;28;20217;-73
2021/12/12 02:07:34;;;;;;;174.88;36.25;;;5.00;90.90;;;;;;5052923;28;20276;-73
2021/12/12 02:10:07;;;;;;;23.33;21.60;;;4.90;92.90;;;;;;5052816;28;20756;-73
2021/12/12 02:12:34;;;;;;;1155.22;161.82;;;5.00;90.70;;;;;;5052537;28;20285;-73
2021/12/12 02:15:02;;;;;;;22.35;21.00;;;5.00;93.90;;;;;;5052573;28;20220;-73
2021/12/12 02:17:36;;;;;;;22.80;21.40;;;5.00;94.00;;;;;;5052853;28;20249;-73
2021/12/12 02:20:16;;;;;;;879.72;106.40;;;5.10;92.20;;;;;;5052624;28;20694;-73
2021/12/12 02:22:59;;;;;;;24.40;22.25;;;5.00;93.70;;;;;;5052397;28;20223;-73
2021/12/12 02:36:32;;;;;;;23.33;21.83;;;4.90;87.30;;;;;;5052800;28;20207;-73
2021/12/12 02:39:02;;;;;;;22.77;21.30;;;4.90;86.50;;;;;;5052520;28;20307;-73
2021/12/12 02:41:30;;;;;;;55.15;24.50;;;4.90;89.90;;;;;;5051914;28;20291;-73
2021/12/12 02:44:00;;;;;;;23.00;21.60;;;4.90;89.10;;;;;;5052267;28;20222;-73
2021/12/12 02:46:32;;;;;;;22.85;21.38;;;4.90;88.80;;;;;;5052070;28;20197;-73
2021/12/12 02:49:06;;;;;;;22.92;21.55;;;4.90;87.10;;;;;;5052373;28;20283;-73
2021/12/12 02:51:36;;;;;;;21.63;20.27;;;4.90;86.20;;;;;;5052381;28;20199;-73
2021/12/12 02:54:05;;;;;;;23.90;22.30;;;4.90;86.20;;;;;;5052048;28;20230;-73
2021/12/12 02:56:36;;;;;;;41.20;23.98;;;4.90;85.60;;;;;;5052296;28;20196;-73
2021/12/12 02:59:06;;;;;;;54.90;24.20;;;4.90;88.50;;;;;;5052230;28;20720;-73
2021/12/12 03:01:36;;;;;;;999.15;129.48;;;4.90;90.60;;;;;;5052307;28;20204;-73
2021/12/12 03:04:05;;;;;;;22.35;20.70;;;4.90;92.80;;;;;;5052056;28;20224;-73
2021/12/12 03:06:34;;;;;;;22.75;20.90;;;4.90;96.50;;;;;;5052388;28;20654;-73
2021/12/12 03:09:07;;;;;;;20.50;19.20;;;4.90;94.00;;;;;;5052166;28;20725;-73
2021/12/12 03:11:34;;;;;;;21.92;20.65;;;4.90;91.40;;;;;;5052265;28;20283;-73
2021/12/12 03:14:01;;;;;;;22.38;20.75;;;4.80;89.40;;;;;;5051940;28;20217;-73
2021/12/12 03:16:30;;;;;;;22.20;20.80;;;4.80;88.70;;;;;;5052262;28;20207;-73
2021/12/12 03:18:57;;;;;;;22.83;21.42;;;4.70;86.80;;;;;;5051911;28;20227;-73
2021/12/12 03:21:30;;;;;;;22.60;21.20;;;4.80;86.30;;;;;;5052098;28;20201;-73
2021/12/12 03:24:00;;;;;;;21.98;20.70;;;4.70;88.50;;;;;;5054849;28;20216;-73
2021/12/12 03:26:28;;;;;;;21.58;20.35;;;4.70;85.60;;;;;;5055879;28;20207;-73
2021/12/12 03:28:56;;;;;;;22.55;21.15;;;4.60;84.40;;;;;;5055705;28;20193;-73
2021/12/12 03:31:34;;;;;;;22.83;21.33;;;4.50;83.80;;;;;;5055848;28;20201;-73
2021/12/12 03:34:04;;;;;;;36.40;22.58;;;4.40;84.80;;;;;;5055565;28;20212;-73
2021/12/12 03:36:31;;;;;;;23.02;21.63;;;4.40;86.20;;;;;;5055767;28;20201;-73
2021/12/12 03:39:02;;;;;;;221.15;42.85;;;4.30;87.10;;;;;;5055506;28;20224;-73
2021/12/12 03:41:33;;;;;;;36.05;23.50;;;4.20;91.20;;;;;;5055006;28;20698;-73
2021/12/12 03:44:05;;;;;;;21.42;20.13;;;4.10;93.20;;;;;;5055266;28;20219;-73
2021/12/12 03:46:34;;;;;;;22.40;20.90;;;4.10;90.30;;;;;;5055129;28;20254;-73
2021/12/12 03:49:01;;;;;;;22.48;20.95;;;4.00;89.70;;;;;;5055414;28;20192;-73
2021/12/12 03:51:30;;;;;;;22.15;20.60;;;4.10;89.00;;;;;;5055355;28;20287;-73
2021/12/12 03:53:57;;;;;;;21.95;20.45;;;4.00;88.40;;;;;;5055126;28;20303;-73
2021/12/12 03:56:24;;;;;;;21.75;20.35;;;4.00;89.00;;;;;;5055346;28;20284;-73
2021/12/12 03:58:53;;;;;;;39.35;22.75;;;4.10;88.30;;;;;;5055108;28;20303;-73
2021/12/12 04:01:25;;;;;;;191.50;37.60;;;4.10;88.70;;;;;;5055079;28;20288;-73
2021/12/12 04:03:55;;;;;;;22.38;21.08;;;4.00;92.50;;;;;;5054976;28;20220;-73
2021/12/12 04:06:25;;;;;;;20.98;19.65;;;3.90;90.60;;;;;;5055403;28;20205;-72
2021/12/12 04:08:53;;;;;;;23.23;21.83;;;3.80;90.30;;;;;;5054987;28;20207;-73
2021/12/12 04:11:22;;;;;;;23.08;21.67;;;3.70;88.30;;;;;;5054977;28;20200;-73
2021/12/12 04:13:53;;;;;;;23.27;21.80;;;3.70;88.00;;;;;;5054643;28;20213;-73
2021/12/12 04:16:21;;;;;;;23.30;21.80;;;3.50;87.90;;;;;;5055148;28;20629;-72
2021/12/12 04:18:49;;;;;;;22.40;20.95;;;3.50;88.20;;;;;;5054861;28;20692;-73
2021/12/12 04:21:19;;;;;;;22.90;21.40;;;3.40;88.20;;;;;;5054776;28;20196;-72
2021/12/12 04:23:47;;;;;;;23.20;21.80;;;3.30;88.40;;;;;;5054465;28;20724;-72
2021/12/12 04:26:17;;;;;;;22.17;20.88;;;3.30;88.70;;;;;;5054731;28;20189;-73
2021/12/12 04:28:45;;;;;;;20.70;19.60;;;3.30;88.30;;;;;;5054669;28;20210;-73
2021/12/12 04:31:13;;;;;;;22.90;21.40;;;3.20;88.40;;;;;;5054604;28;20197;-72
2021/12/12 04:33:40;;;;;;;22.35;20.88;;;3.10;88.90;;;;;;5053486;28;20819;-73
2021/12/12 04:36:07;;;;;;;56.63;25.50;;;3.10;89.10;;;;;;5054030;28;20205;-72
2021/12/12 04:38:34;;;;;;;22.38;20.88;;;3.00;89.40;;;;;;5054402;28;20662;-72
2021/12/12 04:41:02;;;;;;;21.42;20.02;;;3.00;92.40;;;;;;5053817;28;20574;-72
2021/12/12 04:43:29;;;;;;;49.65;22.35;;;3.00;91.30;;;;;;5054230;28;20221;-72
2021/12/12 04:46:21;;;;;;;453.85;67.68;;;2.90;92.20;;;;;;5053928;28;20193;-72
2021/12/12 04:51:42;;;;;;;21.67;20.38;;;2.80;95.90;;;;;;5054257;28;20188;-72
2021/12/12 04:54:20;;;;;;;62.20;25.13;;;2.70;93.20;;;;;;5053939;28;20242;-72
2021/12/12 04:56:53;;;;;;;22.75;21.05;;;2.70;92.10;;;;;;5054230;28;20209;-73
2021/12/12 04:59:25;;;;;;;23.70;22.20;;;2.70;91.60;;;;;;5054229;28;20223;-73
2021/12/12 05:02:04;;;;;;;23.83;22.42;;;2.70;91.00;;;;;;5054230;28;20251;-72
2021/12/12 05:04:37;;;;;;;21.88;20.42;;;2.70;90.70;;;;;;5053905;28;20221;-73
2021/12/12 05:07:10;;;;;;;22.85;21.35;;;2.50;90.70;;;;;;5054109;28;20200;-73
2021/12/12 05:09:47;;;;;;;68.15;25.60;;;2.40;91.30;;;;;;5054009;28;20200;-73
2021/12/12 05:12:17;;;;;;;23.42;21.83;;;2.40;91.60;;;;;;5053986;28;20204;-73
2021/12/12 05:14:52;;;;;;;43.53;22.83;;;2.30;95.40;;;;;;5053540;28;20221;-73
2021/12/12 05:17:23;;;;;;;22.17;20.88;;;2.30;96.40;;;;;;5053814;28;20754;-72
2021/12/12 05:19:53;;;;;;;21.50;19.98;;;2.30;96.40;;;;;;5053534;28;20307;-73
2021/12/12 05:22:30;;;;;;;22.38;20.98;;;2.20;95.40;;;;;;5053602;28;20581;-73
2021/12/12 05:25:02;;;;;;;23.65;21.90;;;2.20;96.00;;;;;;5053260;28;20227;-72
2021/12/12 05:27:32;;;;;;;23.15;21.60;;;2.20;94.90;;;;;;5053603;28;20196;-73
2021/12/12 05:30:01;;;;;;;22.20;20.70;;;2.10;94.20;;;;;;5053447;28;20193;-73
2021/12/12 05:32:32;;;;;;;574.22;95.82;;;2.10;93.70;;;;;;5053386;28;20620;-73
2021/12/12 05:35:00;;;;;;;59.63;25.55;;;2.20;94.00;;;;;;5053414;28;20252;-72
2021/12/12 05:37:28;;;;;;;22.40;20.90;;;2.10;94.30;;;;;;5053463;28;20224;-73
2021/12/12 05:39:59;;;;;;;23.30;21.25;;;2.20;93.50;;;;;;5053285;28;20236;-72
2021/12/12 05:42:26;;;;;;;23.45;21.85;;;2.10;92.70;;;;;;5052733;28;20213;-73
2021/12/12 05:44:54;;;;;;;22.42;20.75;;;2.10;92.30;;;;;;5052742;28;20578;-72
2021/12/12 05:47:21;;;;;;;22.65;21.10;;;2.10;92.00;;;;;;5052766;28;20200;-73
2021/12/12 05:49:50;;;;;;;21.98;20.58;;;2.00;94.00;;;;;;5053227;28;20570;-73
2021/12/12 05:52:22;;;;;;;22.52;21.13;;;2.10;94.00;;;;;;5053265;28;20651;-73
2021/12/12 05:54:52;;;;;;;22.85;21.35;;;2.10;92.40;;;;;;5052816;28;20235;-73
2021/12/12 05:57:24;;;;;;;22.83;21.42;;;2.00;92.00;;;;;;5053210;28;20201;-73
2021/12/12 05:59:51;;;;;;;24.33;22.42;;;2.00;91.90;;;;;;5052910;28;20223;-73
2021/12/12 06:02:19;;;;;;;24.40;22.63;;;1.90;92.30;;;;;;5052906;28;20566;-73
2021/12/12 06:04:46;;;;;;;22.60;21.10;;;1.90;94.40;;;;;;5052675;28;20217;-72
2021/12/12 06:07:19;;;;;;;23.02;21.38;;;2.00;94.00;;;;;;5052948;28;20196;-72
2021/12/12 06:09:47;;;;;;;22.17;20.77;;;2.00;93.40;;;;;;5052747;28;20192;-73
2021/12/12 06:12:15;;;;;;;22.55;20.98;;;2.00;92.70;;;;;;5052672;28;20297;-73
2021/12/12 06:14:43;;;;;;;22.63;21.02;;;2.10;91.80;;;;;;5052635;28;20222;-72
2021/12/12 06:17:13;;;;;;;22.30;20.80;;;2.10;91.30;;;;;;5052873;28;20197;-72
2021/12/12 06:19:41;;;;;;;22.40;21.00;;;2.00;91.30;;;;;;5053086;28;20284;-72
2021/12/12 06:22:09;;;;;;;22.55;21.15;;;1.90;91.60;;;;;;5053133;28;20200;-72
2021/12/12 06:24:40;;;;;;;23.77;22.08;;;2.00;91.50;;;;;;5052385;28;20213;-72
2021/12/12 06:27:14;;;;;;;26.02;24.40;;;2.00;91.20;;;;;;5053731;28;20735;-72
2021/12/12 06:29:41;;;;;;;24.88;23.20;;;1.90;91.30;;;;;;5052596;28;20199;-73
2021/12/12 06:32:09;;;;;;;23.88;22.38;;;1.80;91.50;;;;;;5052451;28;20203;-73
2021/12/12 06:34:36;;;;;;;24.70;23.08;;;1.70;91.90;;;;;;5052310;28;20216;-73
2021/12/12 06:37:04;;;;;;;24.02;22.52;;;1.70;92.00;;;;;;5052614;28;20702;-72
2021/12/12 06:39:31;;;;;;;24.48;22.92;;;1.60;92.10;;;;;;5052466;28;20203;-73
2021/12/12 06:42:01;;;;;;;23.52;22.13;;;1.60;92.20;;;;;;5051949;28;20222;-73
2021/12/12 06:44:28;;;;;;;23.77;22.27;;;1.60;92.50;;;;;;5052226;28;20555;-73
2021/12/12 06:46:55;;;;;;;23.15;21.65;;;1.60;92.50;;;;;;5053691;28;20197;-72
2021/12/12 06:49:24;;;;;;;24.52;23.02;;;1.60;92.50;;;;;;5052298;28;20205;-72
2021/12/12 06:51:53;;;;;;;23.73;22.20;;;1.60;92.50;;;;;;5052369;28;20196;-72
2021/12/12 06:54:24;;;;;;;23.38;21.98;;;1.60;92.40;;;;;;5052118;28;20303;-72
2021/12/12 06:56:53;;;;;;;23.90;22.27;;;1.60;92.30;;;;;;5052392;28;20658;-73
2021/12/12 06:59:22;;;;;;;25.65;24.05;;;1.50;92.50;;;;;;5056138;28;20200;-73
2021/12/12 07:01:49;;;;;;;43.13;25.13;;;1.50;93.30;;;;;;5056381;28;20203;-72
2021/12/12 07:04:18;;;;;;;22.92;21.42;;;1.50;96.10;;;;;;5056010;28;20213;-72
2021/12/12 07:06:47;;;;;;;23.88;22.33;;;1.50;96.70;;;;;;5056251;28;20246;-73
2021/12/12 07:09:15;;;;;;;58.33;26.15;;;1.50;96.40;;;;;;5056083;28;20658;-72
2021/12/12 07:11:42;;;;;;;23.55;22.05;;;1.60;98.20;;;;;;5056163;28;20189;-73
2021/12/12 07:14:12;;;;;;;24.25;22.48;;;1.60;96.40;;;;;;5055731;28;20223;-73
2021/12/12 07:16:45;;;;;;;23.48;21.88;;;1.60;95.60;;;;;;5056101;28;20203;-73
2021/12/12 07:19:16;;;;;;;23.80;22.30;;;1.50;94.50;;;;;;5056035;28;20205;-73
2021/12/12 07:21:44;;;;;;;23.75;22.35;;;1.50;94.20;;;;;;5055912;28;20220;-72
2021/12/12 07:24:12;;;;;;;26.80;25.00;;;1.50;94.00;;;;;;5055721;28;20212;-72
2021/12/12 07:26:39;;;;;;;23.10;21.50;;;1.50;94.00;;;;;;5055913;28;20239;-72
2021/12/12 07:29:06;;;;;;;25.08;23.48;;;1.50;93.90;;;;;;5056317;28;20291;-72
2021/12/12 07:31:36;;;;;;;25.80;23.83;;;1.60;93.70;;;;;;5055994;28;20196;-72
2021/12/12 07:34:09;;;;;;;102.32;33.58;;;1.60;93.60;;;;;;5055516;28;20231;-72
2021/12/12 07:36:38;;;;;;;24.50;22.52;;;1.70;94.40;;;;;;5055654;28;20203;-72
2021/12/12 07:39:08;;;;;;;25.52;23.60;;;1.80;93.70;;;;;;5055545;28;20197;-72
2021/12/12 07:41:36;;;;;;;24.92;23.23;;;1.90;94.00;;;;;;5054877;28;20223;-73
2021/12/12 07:44:06;;;;;;;23.73;21.92;;;2.00;93.50;;;;;;5055207;28;20262;-72
2021/12/12 07:46:36;;;;;;;24.50;22.83;;;2.00;92.90;;;;;;5055293;28;20203;-72
2021/12/12 07:49:06;;;;;;;26.08;24.13;;;2.10;92.70;;;;;;5055389;28;20201;-72
2021/12/12 07:51:36;;;;;;;23.73;22.13;;;2.20;92.30;;;;;;5055301;28;20193;-72
2021/12/12 07:54:05;;;;;;;25.02;23.35;;;2.20;91.70;;;;;;5055221;28;20233;-72
2021/12/12 07:56:35;;;;;;;23.00;21.60;;;2.30;91.60;;;;;;5055324;28;20196;-73
2021/12/12 07:59:05;;;;;;;23.92;22.50;;;2.40;90.80;;;;;;5055138;28;20658;-72
2021/12/12 08:01:32;;;;;;;23.45;21.92;;;2.50;90.30;;;;;;5055054;28;20221;-72
2021/12/12 08:03:59;;;;;;;24.55;22.70;;;2.80;89.30;;;;;;5054901;28;20224;-72
2021/12/12 08:06:28;;;;;;;23.08;21.65;;;3.00;89.60;;;;;;5055619;28;20295;-73
2021/12/12 08:08:56;;;;;;;21.38;20.13;;;3.10;88.90;;;;;;5054716;28;20569;-72
2021/12/12 08:11:27;;;;;;;22.88;21.48;;;3.10;89.10;;;;;;5055092;28;20296;-72
2021/12/12 08:13:55;;;;;;;23.60;21.70;;;3.40;87.90;;;;;;5054787;28;20311;-72
2021/12/12 08:16:23;;;;;;;23.75;22.08;;;3.40;87.00;;;;;;5055116;28;20203;-72
2021/12/12 08:18:50;;;;;;;25.05;23.45;;;3.60;85.90;;;;;;5054935;28;20230;-72
2021/12/12 08:21:18;;;;;;;23.95;22.45;;;3.70;85.20;;;;;;5054738;28;20581;-72
2021/12/12 08:23:47;;;;;;;23.63;22.23;;;3.90;84.20;;;;;;5054466;28;20259;-72
2021/12/12 08:26:14;;;;;;;21.95;20.65;;;4.00;83.10;;;;;;5054770;28;20193;-72
2021/12/12 08:28:43;;;;;;;23.77;22.27;;;4.20;82.40;;;;;;5054639;28;20197;-72
2021/12/12 08:31:13;;;;;;;22.58;21.17;;;4.20;82.00;;;;;;5054451;28;20673;-72
2021/12/12 08:33:42;;;;;;;23.85;22.35;;;4.30;82.30;;;;;;5054266;28;20720;-73
2021/12/12 08:36:09;;;;;;;23.63;22.00;;;4.30;81.60;;;;;;5054535;28;20689;-73
2021/12/12 08:38:37;;;;;;;24.80;23.25;;;4.40;83.30;;;;;;5054540;28;20231;-73
2021/12/12 08:41:07;;;;;;;22.95;21.45;;;4.40;81.90;;;;;;5053749;28;20217;-73
2021/12/12 08:43:34;;;;;;;22.85;21.55;;;4.40;82.20;;;;;;5054166;28;20221;-72
2021/12/12 08:46:04;;;;;;;21.80;20.50;;;4.40;82.30;;;;;;5053913;28;20684;-72
2021/12/12 08:48:33;;;;;;;23.50;22.10;;;4.60;81.10;;;;;;5054449;28;20200;-72
2021/12/12 08:51:04;;;;;;;24.42;22.55;;;4.60;80.40;;;;;;5054287;28;20189;-73
2021/12/12 08:53:31;;;;;;;25.58;23.98;;;4.70;80.10;;;;;;5054111;28;20221;-72
2021/12/12 08:56:00;;;;;;;23.90;22.40;;;4.70;79.20;;;;;;5054273;28;20283;-73
2021/12/12 08:58:31;;;;;;;25.33;23.80;;;4.70;78.80;;;;;;5054041;28;20205;-73
2021/12/12 09:01:01;;;;;;;23.55;22.15;;;4.70;80.70;;;;;;5053945;28;20227;-73
2021/12/12 09:03:35;;;;;;;23.50;22.10;;;4.70;79.30;;;;;;5053701;28;20217;-73
2021/12/12 09:06:02;;;;;;;22.25;20.95;;;4.70;79.10;;;;;;5054124;28;20558;-73
2021/12/12 09:08:36;;;;;;;23.77;22.48;;;4.70;79.40;;;;;;5053944;28;20614;-73
2021/12/12 09:11:07;;;;;;;24.38;22.88;;;4.80;78.60;;;;;;5053904;28;20558;-73
2021/12/12 09:13:43;;;;;;;24.88;23.38;;;4.70;81.50;;;;;;5053528;28;20383;-73
2021/12/12 09:16:16;;;;;;;22.90;21.50;;;4.70;79.90;;;;;;5054004;28;20204;-73
2021/12/12 09:18:48;;;;;;;23.33;22.02;;;4.80;78.90;;;;;;5053803;28;20207;-73
2021/12/12 09:21:24;;;;;;;23.00;21.70;;;4.90;77.70;;;;;;5053003;28;20239;-73
2021/12/12 09:24:03;;;;;;;23.50;21.83;;;4.90;77.60;;;;;;5053384;28;20581;-72
2021/12/12 09:26:32;;;;;;;22.25;20.98;;;5.00;77.20;;;;;;5053680;28;20200;-73
2021/12/12 09:29:07;;;;;;;25.20;23.70;;;5.00;77.40;;;;;;5053562;28;20223;-72
2021/12/12 09:31:38;;;;;;;22.95;21.60;;;5.00;78.10;;;;;;5053507;28;20201;-73
2021/12/12 09:34:10;;;;;;;23.02;21.90;;;5.00;78.30;;;;;;5053181;28;20216;-73
2021/12/12 09:36:41;;;;;;;24.80;23.50;;;5.10;77.70;;;;;;5053514;28;20196;-73
2021/12/12 09:39:13;;;;;;;22.20;20.92;;;5.30;76.00;;;;;;5053442;28;20729;-73
2021/12/12 09:42:02;;;;;;;22.65;21.40;;;5.30;75.90;;;;;;5052707;28;20217;-73
2021/12/12 09:44:50;;;;;;;22.92;21.63;;;5.40;75.60;;;;;;5052891;28;20256;-73
2021/12/12 09:47:46;;;;;;;23.58;22.17;;;5.40;75.50;;;;;;5053015;28;20582;-73
2021/12/12 09:53:29;;;;;;;22.38;21.17;;;5.60;74.90;;;;;;5052919;28;20348;-73
2021/12/12 09:56:04;;;;;;;22.98;21.67;;;5.70;74.40;;;;;;5053208;28;20197;-73
2021/12/12 09:58:41;;;;;;;21.52;20.42;;;5.70;75.00;;;;;;5053055;28;20207;-73
2021/12/12 10:01:14;;;;;;;23.45;22.23;;;5.80;74.40;;;;;;5052789;28;20224;-73
2021/12/12 10:03:51;;;;;;;22.38;21.27;;;6.00;73.60;;;;;;5052742;28;20221;-73
2021/12/12 10:06:29;;;;;;;22.10;20.90;;;6.10;74.10;;;;;;5053040;28;20193;-73
2021/12/12 10:09:03;;;;;;;21.27;20.08;;;6.20;73.00;;;;;;5052936;28;20287;-73
2021/12/12 10:11:38;;;;;;;22.80;21.60;;;6.20;73.00;;;;;;5052820;28;20558;-73
2021/12/12 10:14:12;;;;;;;21.90;20.70;;;6.30;73.20;;;;;;5052494;28;20227;-73
2021/12/12 10:16:46;;;;;;;24.20;22.80;;;6.30;72.40;;;;;;5052875;28;20207;-73
2021/12/12 10:19:26;;;;;;;23.00;21.70;;;6.30;71.90;;;;;;5052819;28;20246;-73
2021/12/12 10:22:14;;;;;;;23.45;22.13;;;6.30;72.40;;;;;;5052520;28;20712;-73
2021/12/12 10:24:48;;;;;;;23.50;22.25;;;6.50;72.00;;;;;;5052518;28;20235;-73
2021/12/12 10:27:19;;;;;;;22.35;21.15;;;6.50;72.10;;;;;;5052724;28;20557;-73
2021/12/12 10:29:57;;;;;;;23.65;22.45;;;6.70;71.80;;;;;;5052612;28;20208;-73
2021/12/12 10:32:28;;;;;;;23.60;22.02;;;6.80;71.20;;;;;;5052488;28;20666;-73
2021/12/12 10:35:02;;;;;;;22.58;21.25;;;6.90;71.00;;;;;;5052485;28;20227;-73
2021/12/12 10:37:33;;;;;;;28.25;25.98;;;6.90;71.00;;;;;;5052553;28;20200;-73
2021/12/12 10:40:08;;;;;;;22.17;21.00;;;7.00;70.70;;;;;;5052371;28;20211;-73
2021/12/12 10:42:43;;;;;;;21.48;20.23;;;7.10;70.00;;;;;;5051823;28;20212;-73
2021/12/12 10:45:14;;;;;;;21.35;20.25;;;7.20;69.90;;;;;;5052276;28;20223;-73
2021/12/12 10:47:53;;;;;;;22.77;21.58;;;7.20;69.40;;;;;;5052087;28;20658;-73
2021/12/12 10:50:27;;;;;;;21.85;20.50;;;7.30;69.30;;;;;;5052381;28;20214;-73
2021/12/12 10:52:59;;;;;;;22.30;20.70;;;7.40;69.70;;;;;;5052194;28;20279;-73
2021/12/12 10:55:32;;;;;;;23.50;22.10;;;7.50;69.00;;;;;;5052236;28;20659;-73
2021/12/12 10:58:07;;;;;;;21.58;20.40;;;7.50;69.00;;;;;;5052396;28;20201;-73
2021/12/12 11:00:37;;;;;;;22.30;21.10;;;7.60;69.30;;;;;;5052218;28;20717;-73
2021/12/12 11:03:08;;;;;;;22.35;21.15;;;7.50;69.90;;;;;;5052005;28;20633;-73
2021/12/12 11:05:38;;;;;;;21.05;19.90;;;7.40;68.50;;;;;;5052274;28;20201;-73
2021/12/12 11:08:11;;;;;;;21.20;20.10;;;7.40;68.70;;;;;;5052240;28;20211;-73
2021/12/12 11:10:41;;;;;;;21.10;20.10;;;7.60;68.60;;;;;;5052221;28;20204;-73
2021/12/12 11:13:11;;;;;;;22.60;21.40;;;7.80;68.00;;;;;;5052079;28;20227;-73
2021/12/12 11:15:48;;;;;;;22.25;21.02;;;7.80;68.10;;;;;;5052204;28;20203;-73
2021/12/12 11:18:25;;;;;;;22.88;21.58;;;8.00;69.10;;;;;;5052084;28;20287;-73
2021/12/12 11:20:56;;;;;;;22.23;20.92;;;8.20;68.00;;;;;;5052036;28;20286;-73
2021/12/12 11:23:29;;;;;;;22.02;20.73;;;8.20;67.10;;;;;;5051979;28;20224;-73
2021/12/12 11:25:58;;;;;;;21.92;20.73;;;8.20;67.10;;;;;;5052113;28;20677;-73
2021/12/12 11:28:28;;;;;;;22.50;21.30;;;8.20;66.80;;;;;;5051987;28;20616;-73
2021/12/12 11:30:59;;;;;;;22.15;21.00;;;8.30;67.10;;;;;;5051944;28;20197;-73
2021/12/12 11:33:31;;;;;;;23.27;22.05;;;8.30;67.10;;;;;;5051605;28;20227;-73
2021/12/12 11:36:00;;;;;;;21.77;20.55;;;8.30;66.10;;;;;;5052103;28;20207;-73
2021/12/12 11:38:37;;;;;;;22.83;21.50;;;8.30;66.10;;;;;;5051788;28;20295;-73
2021/12/12 11:41:10;;;;;;;24.70;23.15;;;8.30;66.20;;;;;;5051247;28;20204;-73
2021/12/12 11:43:44;;;;;;;23.10;21.80;;;8.30;67.40;;;;;;5052587;28;20221;-73
2021/12/12 11:46:14;;;;;;;22.67;21.38;;;8.40;67.10;;;;;;5055142;28;20196;-73
2021/12/12 11:48:53;;;;;;;23.52;21.80;;;8.40;67.00;;;;;;5055471;28;20200;-71
2021/12/12 11:51:28;;;;;;;21.48;20.38;;;8.50;68.10;;;;;;5055400;28;20203;-72
2021/12/12 11:54:03;;;;;;;22.20;21.10;;;8.50;66.90;;;;;;5055110;28;20326;-71
2021/12/12 11:56:34;;;;;;;23.50;22.30;;;8.50;65.80;;;;;;5055303;28;20291;-72
2021/12/12 11:59:09;;;;;;;22.77;21.58;;;8.50;65.80;;;;;;5055330;28;20279;-72
2021/12/12 12:01:57;;;;;;;23.35;21.75;;;8.60;66.00;;;;;;5055100;28;20251;-72
2021/12/12 12:04:49;;;;;;;21.88;20.55;;;8.50;65.60;;;;;;5054813;28;20820;-72
2021/12/12 12:07:24;;;;;;;22.05;20.75;;;8.50;65.50;;;;;;5055108;28;20280;-71
2021/12/12 12:10:03;;;;;;;23.98;22.67;;;8.50;65.70;;;;;;5055024;28;20196;-72
2021/12/12 12:12:52;;;;;;;23.15;21.75;;;8.40;66.60;;;;;;5054864;28;20195;-72
2021/12/12 12:15:26;;;;;;;27.67;25.85;;;8.40;66.00;;;;;;5053182;28;20254;-72
2021/12/12 12:18:02;;;;;;;22.23;21.02;;;8.20;72.30;;;;;;5055076;28;20195;-72
2021/12/12 12:20:41;;;;;;;23.38;22.17;;;8.20;68.30;;;;;;5054780;28;20197;-71
2021/12/12 12:23:31;;;;;;;23.17;21.63;;;8.10;66.60;;;;;;5054336;28;20228;-71
2021/12/12 12:28:56;;;;;;;23.40;22.10;;;8.20;65.80;;;;;;5054664;28;20335;-72
2021/12/12 12:32:20;;;;;;;23.08;21.80;;;8.20;66.20;;;;;;5054645;28;20211;-72
2021/12/12 12:35:33;;;;;;;21.40;20.30;;;8.30;65.60;;;;;;5054378;28;20224;-71
2021/12/12 12:42:21;;;;;;;21.60;20.40;;;8.40;65.00;;;;;;5089618;28;20535;-73
2021/12/12 12:45:25;;;;;;;21.60;20.42;;;8.30;65.00;;;;;;5086287;28;20215;-73
2021/12/12 12:48:25;;;;;;;23.10;21.90;;;8.30;65.20;;;;;;5090050;28;20743;-73
2021/12/12 12:51:08;;;;;;;22.13;20.92;;;8.40;64.40;;;;;;5076721;28;20653;-73
2021/12/12 12:54:11;;;;;;;23.75;22.20;;;8.50;64.80;;;;;;5089752;28;20647;-73
2021/12/12 12:57:19;;;;;;;21.30;20.10;;;8.50;64.70;;;;;;5089981;28;20226;-73
2021/12/12 12:59:58;;;;;;;21.90;20.80;;;8.40;65.40;;;;;;5089789;28;20265;-72
2021/12/12 13:02:31;;;;;;;23.20;21.80;;;8.40;65.00;;;;;;5089642;28;20282;-72
2021/12/12 13:05:36;;;;;;;22.65;21.55;;;8.50;65.50;;;;;;5089637;28;20216;-72
2021/12/12 13:08:48;;;;;;;22.20;21.00;;;8.50;64.60;;;;;;5058614;28;20202;-73
2021/12/12 13:11:18;;;;;;;22.90;21.70;;;8.50;65.10;;;;;;5089560;28;20684;-73
2021/12/12 13:13:53;;;;;;;21.40;20.25;;;8.50;65.20;;;;;;5089357;28;20748;-73
2021/12/12 13:16:29;;;;;;;21.98;20.77;;;8.60;65.30;;;;;;5089700;28;20203;-73
2021/12/12 13:19:03;;;;;;;24.08;22.63;;;8.70;65.10;;;;;;5089406;28;20571;-73
2021/12/12 13:21:36;;;;;;;23.20;22.00;;;8.60;65.00;;;;;;5089338;28;20600;-72
2021/12/12 13:24:19;;;;;;;22.25;21.08;;;8.70;65.30;;;;;;5089055;28;20230;-73
2021/12/12 13:27:00;;;;;;;22.25;21.05;;;8.60;65.70;;;;;;5089370;28;20196;-73